Time;durP1;ratioP1;P1;durP2;ratioP2;P2;SDS_P1;SDS_P2;PMS_P1;PMS_P2;Temp;Humidity;BMP_temperature;BMP_pressure;BME280_temperature;BME280_humidity;BME280_pressure;Samples;Min_cycle;Max_cycle;Signal;HPM_P1;HPM_P2
2023/05/20 10:15:24;;;;;;;13.25;5.50;;;;;;;26.11;37.29;101434.97;4894041;27;71776;-80
2023/05/20 10:18:11;;;;;;;10.27;5.63;;;;;;;26.15;36.93;101432.56;5071606;28;20483;-81
2023/05/20 10:20:46;;;;;;;9.18;5.22;;;;;;;26.21;36.72;101431.50;5047335;28;20541;-81
2023/05/20 10:23:29;;;;;;;9.38;5.20;;;;;;;26.41;36.68;101425.44;5054967;28;20409;-81
2023/05/20 10:25:56;;;;;;;17.52;6.03;;;;;;;26.60;36.20;101428.59;5057192;28;20391;-82
2023/05/20 10:28:35;;;;;;;14.30;5.90;;;;;;;26.57;36.34;101414.69;5049115;28;20969;-79
2023/05/20 10:31:01;;;;;;;11.87;5.60;;;;;;;26.57;36.18;101410.06;5049495;28;21566;-81
2023/05/20 10:33:27;;;;;;;10.80;5.10;;;;;;;26.53;36.54;101408.97;5043770;28;20393;-80
2023/05/20 10:35:57;;;;;;;16.42;5.90;;;;;;;26.66;36.30;101421.31;5048631;28;20408;-80
2023/05/20 10:38:23;;;;;;;12.68;5.50;;;;;;;26.62;35.46;101418.31;5048532;28;20388;-81
2023/05/20 10:40:48;;;;;;;15.90;5.80;;;;;;;26.56;35.06;101421.19;5040684;28;20381;-82
2023/05/20 10:43:17;;;;;;;18.10;5.82;;;;;;;26.56;34.99;101407.59;5048023;28;20425;-81
2023/05/20 10:45:48;;;;;;;14.20;5.30;;;;;;;26.61;35.05;101403.03;5061924;28;20466;-81
2023/05/20 10:48:40;;;;;;;14.43;5.85;;;;;;;26.64;35.21;101399.81;5056632;28;20404;-81
2023/05/20 10:51:13;;;;;;;16.30;6.03;;;;;;;26.72;35.12;101390.34;5044860;28;20397;-81
2023/05/20 10:53:40;;;;;;;14.80;5.93;;;;;;;26.64;35.48;101383.50;5062233;28;20422;-80
2023/05/20 10:56:18;;;;;;;14.57;5.95;;;;;;;26.65;35.06;101374.28;5050020;28;20393;-81
2023/05/20 10:58:44;;;;;;;12.32;5.80;;;;;;;26.84;35.31;101382.00;5069992;28;20600;-79
2023/05/20 11:01:11;;;;;;;12.85;6.60;;;;;;;26.92;35.38;101383.41;5079118;28;20395;-80
2023/05/20 11:03:37;;;;;;;14.18;5.63;;;;;;;26.97;35.25;101386.16;5056083;28;20450;-81
2023/05/20 11:06:27;;;;;;;12.82;5.65;;;;;;;26.83;34.81;101367.59;5048410;28;20490;-80
2023/05/20 11:08:54;;;;;;;8.23;5.30;;;;;;;26.88;35.44;101373.06;5047360;28;20844;-80
2023/05/20 11:11:21;;;;;;;12.98;5.82;;;;;;;27.04;35.16;101367.69;5047094;28;20806;-80
2023/05/20 11:13:51;;;;;;;15.98;5.97;;;;;;;26.96;35.21;101360.84;5044954;28;20489;-80
2023/05/20 11:16:18;;;;;;;16.40;6.15;;;;;;;27.04;34.84;101370.41;5030369;28;20520;-81
2023/05/20 11:18:47;;;;;;;14.32;6.03;;;;;;;26.95;34.81;101372.81;5034317;28;20390;-81
2023/05/20 11:21:13;;;;;;;12.82;5.50;;;;;;;26.77;34.66;101368.63;5031371;28;20500;-80
2023/05/20 11:23:38;;;;;;;11.27;5.50;;;;;;;26.79;35.36;101357.47;5049596;28;20981;-81
2023/05/20 11:26:04;;;;;;;9.97;5.30;;;;;;;26.78;35.16;101361.31;5034170;28;20382;-80
2023/05/20 11:28:32;;;;;;;13.27;5.93;;;;;;;26.78;35.31;101350.41;5034438;28;20394;-80
2023/05/20 11:30:58;;;;;;;13.85;5.78;;;;;;;26.77;35.63;101351.50;5053309;28;20387;-81
2023/05/20 11:33:26;;;;;;;14.38;6.00;;;;;;;26.83;35.55;101355.88;5034178;28;20374;-82
2023/05/20 11:35:52;;;;;;;16.03;6.03;;;;;;;26.98;35.58;101342.34;5050877;28;20383;-82
2023/05/20 11:38:19;;;;;;;13.98;5.90;;;;;;;27.09;35.38;101341.31;5034812;28;20555;-81
2023/05/20 11:40:46;;;;;;;14.43;5.78;;;;;;;27.10;34.86;101344.88;5032530;28;20465;-81
2023/05/20 11:43:13;;;;;;;13.15;6.05;;;;;;;27.07;34.62;101339.94;5048017;28;20909;-81
2023/05/20 11:45:40;;;;;;;18.45;6.43;;;;;;;27.06;35.08;101346.47;5034460;28;20456;-81
2023/05/20 11:48:06;;;;;;;12.27;5.57;;;;;;;27.10;34.62;101344.88;5032291;28;20469;-80
2023/05/20 11:50:40;;;;;;;12.20;5.60;;;;;;;27.09;34.38;101330.41;5032223;28;20469;-81
2023/05/20 11:53:07;;;;;;;13.20;5.50;;;;;;;26.94;34.36;101330.38;5032775;28;20382;-81
2023/05/20 11:55:34;;;;;;;10.50;5.10;;;;;;;26.88;35.08;101324.09;5033908;28;20387;-81
2023/05/20 11:58:00;;;;;;;14.82;5.60;;;;;;;26.83;34.97;101320.50;5031348;28;20409;-81
2023/05/20 12:00:26;;;;;;;12.07;5.30;;;;;;;26.77;34.92;101332.44;5031016;28;20391;-81
2023/05/20 12:02:52;;;;;;;12.52;5.20;;;;;;;26.76;35.04;101325.38;5029051;28;20493;-81
2023/05/20 12:05:17;;;;;;;14.90;5.63;;;;;;;26.89;35.35;101314.03;5036033;28;20394;-80
2023/05/20 12:07:43;;;;;;;12.17;5.33;;;;;;;27.09;34.92;101310.56;5034096;28;20540;-80
2023/05/20 12:10:09;;;;;;;11.23;5.20;;;;;;;27.14;35.08;101318.75;5045733;28;20400;-80
2023/05/20 12:12:36;;;;;;;21.48;6.47;;;;;;;27.17;34.71;101303.78;5059701;28;20437;-80
2023/05/20 12:15:04;;;;;;;16.30;5.30;;;;;;;27.25;34.75;101306.00;5044284;28;20413;-80
2023/05/20 12:17:42;;;;;;;13.40;5.13;;;;;;;27.18;34.58;101306.22;5035880;28;20404;-80
2023/05/20 12:20:08;;;;;;;11.85;5.47;;;;;;;27.30;34.55;101308.78;5034973;28;20901;-79
2023/05/20 12:22:34;;;;;;;11.10;5.18;;;;;;;27.20;34.60;101297.81;5034271;28;20889;-80
2023/05/20 12:24:59;;;;;;;15.48;5.50;;;;;;;27.26;34.42;101291.28;5058826;28;20431;-80
2023/05/20 12:30:09;;;;;;;16.02;5.65;;;;;;;27.30;34.39;101277.97;5030825;28;20399;-80
2023/05/20 12:32:36;;;;;;;12.87;5.00;;;;;;;27.20;34.65;101273.31;5041867;28;20499;-80
2023/05/20 12:35:03;;;;;;;16.33;5.68;;;;;;;27.04;34.50;101264.28;5050154;28;20915;-80
2023/05/20 12:37:28;;;;;;;19.42;5.78;;;;;;;27.05;34.46;101263.22;5042397;28;20392;-80
2023/05/20 12:39:54;;;;;;;13.85;5.10;;;;;;;27.16;33.79;101267.59;5036509;28;20389;-80
2023/05/20 12:42:19;;;;;;;12.07;4.93;;;;;;;27.22;34.13;101257.53;5034093;28;20814;-80
2023/05/20 12:44:45;;;;;;;17.30;5.73;;;;;;;27.37;34.00;101254.03;5032702;28;20458;-79
2023/05/20 12:47:10;;;;;;;12.93;5.10;;;;;;;27.18;33.67;101242.81;5042810;28;20396;-79
2023/05/20 12:49:36;;;;;;;12.98;5.15;;;;;;;27.10;33.17;101255.06;5047687;28;20392;-80
2023/05/20 12:52:01;;;;;;;15.23;5.65;;;;;;;27.07;33.59;101240.06;5030445;28;20410;-80
2023/05/20 12:54:27;;;;;;;16.40;5.57;;;;;;;27.06;33.59;101246.63;5032499;28;20417;-79
2023/05/20 12:56:56;;;;;;;13.37;4.93;;;;;;;27.09;33.59;101240.63;5044295;28;20400;-80
2023/05/20 12:59:22;;;;;;;9.20;4.90;;;;;;;27.27;33.79;101233.06;5018425;28;20865;-79
2023/05/20 13:01:47;;;;;;;12.80;5.20;;;;;;;27.20;33.94;101246.09;5031303;28;20397;-79
2023/05/20 13:04:13;;;;;;;12.40;5.10;;;;;;;27.09;34.18;101226.19;5032027;28;20432;-81
2023/05/20 13:06:39;;;;;;;13.10;5.20;;;;;;;27.18;34.17;101229.22;5030384;28;20421;-81
2023/05/20 13:09:04;;;;;;;13.68;5.40;;;;;;;27.07;33.44;101210.13;5036336;28;20870;-81
2023/05/20 13:11:30;;;;;;;13.52;5.70;;;;;;;27.10;33.58;101206.09;5031981;28;20511;-80
2023/05/20 13:13:56;;;;;;;13.83;5.23;;;;;;;27.08;33.57;101210.94;5030012;28;20402;-80
2023/05/20 13:16:22;;;;;;;18.58;5.20;;;;;;;27.10;32.98;101214.25;5046989;28;20378;-80
2023/05/20 13:18:48;;;;;;;16.25;5.10;;;;;;;27.16;33.01;101201.47;5032143;28;20458;-80
2023/05/20 13:21:13;;;;;;;11.73;4.70;;;;;;;27.05;32.90;101223.19;5031596;28;20811;-80
2023/05/20 13:23:40;;;;;;;16.52;5.22;;;;;;;26.80;32.96;101221.22;5032018;28;20493;-80
2023/05/20 13:26:06;;;;;;;9.55;4.65;;;;;;;26.85;33.11;101218.53;5032130;28;20386;-79
2023/05/20 13:28:31;;;;;;;8.83;4.43;;;;;;;26.94;32.18;101215.25;5032668;28;20448;-80
2023/05/20 13:30:57;;;;;;;9.32;4.63;;;;;;;27.05;32.03;101211.50;5035598;28;20418;-80
2023/05/20 13:33:23;;;;;;;13.43;5.00;;;;;;;26.95;32.07;101209.56;5032877;28;20381;-81
2023/05/20 13:35:49;;;;;;;14.07;4.97;;;;;;;27.08;33.01;101217.22;5032392;28;20370;-82
2023/05/20 13:38:14;;;;;;;12.07;4.70;;;;;;;26.97;32.64;101212.03;5031493;28;20386;-81
2023/05/20 13:40:40;;;;;;;14.07;4.97;;;;;;;27.08;32.65;101210.94;5044491;28;20450;-80
2023/05/20 13:43:06;;;;;;;15.30;5.37;;;;;;;27.13;32.64;101210.97;5047333;28;20485;-80
2023/05/20 13:45:32;;;;;;;14.32;4.88;;;;;;;27.15;32.30;101206.06;5030546;28;20485;-79
2023/05/20 13:47:57;;;;;;;12.60;4.70;;;;;;;27.12;32.15;101195.75;5032841;28;20402;-79
2023/05/20 13:50:23;;;;;;;13.80;5.07;;;;;;;27.25;31.55;101199.84;5032651;28;20837;-80
2023/05/20 13:52:48;;;;;;;11.40;4.88;;;;;;;27.04;31.66;101194.34;5031372;28;20432;-79
2023/05/20 13:55:15;;;;;;;13.35;4.97;;;;;;;26.96;32.41;101183.19;5030245;28;20391;-80
2023/05/20 13:57:41;;;;;;;20.05;4.70;;;;;;;27.06;32.87;101181.31;5031344;28;20458;-79
2023/05/20 14:00:08;;;;;;;10.82;4.97;;;;;;;27.13;32.98;101180.22;5031707;28;20405;-80
2023/05/20 14:02:33;;;;;;;16.23;5.30;;;;;;;26.79;33.08;101186.13;5026245;28;20412;-80
2023/05/20 14:04:59;;;;;;;11.35;4.75;;;;;;;26.79;33.66;101176.06;5030870;28;20379;-80
2023/05/20 14:07:24;;;;;;;13.43;4.90;;;;;;;26.70;33.41;101177.66;5031464;28;21153;-78
2023/05/20 14:09:50;;;;;;;10.97;4.80;;;;;;;26.87;32.39;101169.28;5030975;28;20923;-80
2023/05/20 14:12:15;;;;;;;14.37;5.63;;;;;;;26.77;31.36;101161.09;5031392;28;20382;-79
2023/05/20 14:14:41;;;;;;;12.15;5.00;;;;;;;26.94;31.29;101164.41;5030991;28;20382;-79
2023/05/20 14:17:06;;;;;;;11.20;4.70;;;;;;;26.77;32.31;101163.81;5031019;28;20382;-78
2023/05/20 14:19:32;;;;;;;13.30;5.27;;;;;;;26.51;33.55;101164.53;5031523;28;20386;-79
2023/05/20 14:22:00;;;;;;;10.30;4.70;;;;;;;26.52;33.55;101160.72;5031379;28;20371;-79
2023/05/20 14:24:26;;;;;;;11.90;4.97;;;;;;;26.52;33.53;101165.31;5031995;28;20386;-80
2023/05/20 14:26:52;;;;;;;14.20;5.22;;;;;;;26.62;33.00;101151.00;5032188;28;20452;-80
2023/05/20 14:29:17;;;;;;;14.60;5.75;;;;;;;26.63;33.70;101155.34;5033391;28;20386;-80
2023/05/20 14:31:43;;;;;;;12.73;5.60;;;;;;;26.65;33.85;101148.56;5039168;28;20463;-79
2023/05/20 14:34:09;;;;;;;14.50;5.47;;;;;;;26.62;34.31;101151.00;5032967;28;20386;-79
2023/05/20 14:36:35;;;;;;;15.18;5.30;;;;;;;26.48;34.91;101143.28;5032518;28;20393;-80
2023/05/20 14:39:00;;;;;;;12.43;5.57;;;;;;;26.56;34.34;101141.13;5037356;28;20376;-81
2023/05/20 14:41:26;;;;;;;19.40;6.07;;;;;;;26.57;34.07;101143.59;5059652;28;20411;-80
2023/05/20 14:43:51;;;;;;;17.83;5.72;;;;;;;26.59;34.44;101146.88;5035680;28;20895;-80
2023/05/20 14:46:16;;;;;;;12.67;5.10;;;;;;;26.60;34.33;101150.41;5033754;28;20492;-80
2023/05/20 14:48:42;;;;;;;12.40;5.13;;;;;;;26.48;33.37;101150.63;5034577;28;20382;-80
2023/05/20 14:51:07;;;;;;;14.87;4.93;;;;;;;26.39;33.15;101165.84;5035854;28;20424;-80
2023/05/20 14:53:33;;;;;;;13.37;5.03;;;;;;;26.48;33.61;101164.22;5035310;28;20823;-80
2023/05/20 14:55:59;;;;;;;13.45;5.13;;;;;;;26.40;33.83;101159.28;5035698;28;20418;-81
2023/05/20 14:58:24;;;;;;;13.70;5.20;;;;;;;26.25;34.05;101154.59;5050127;28;20923;-79
2023/05/20 15:00:52;;;;;;;15.20;5.37;;;;;;;26.22;33.99;101152.44;5034793;28;20805;-80
2023/05/20 15:03:17;;;;;;;18.98;5.75;;;;;;;26.28;33.45;101148.66;5032858;28;20424;-81
2023/05/20 15:05:44;;;;;;;14.70;5.63;;;;;;;26.14;33.34;101145.59;5033724;28;20390;-80
2023/05/20 15:08:09;;;;;;;19.48;5.72;;;;;;;26.23;33.50;101149.44;5032962;28;20452;-80
2023/05/20 15:10:35;;;;;;;17.70;5.60;;;;;;;26.08;33.63;101138.50;5031733;28;20441;-80
2023/05/20 15:13:01;;;;;;;19.58;5.93;;;;;;;26.11;33.47;101143.41;5031805;28;20409;-80
2023/05/20 15:15:26;;;;;;;15.20;5.15;;;;;;;26.00;32.99;101142.53;5049228;28;20386;-80
2023/05/20 15:17:52;;;;;;;16.98;5.78;;;;;;;25.82;33.14;101135.63;5032236;28;20466;-81
2023/05/20 15:20:17;;;;;;;14.87;5.10;;;;;;;25.79;32.99;101138.84;5054885;28;20821;-80
2023/05/20 15:22:46;;;;;;;19.53;5.87;;;;;;;25.92;33.46;101148.44;5035247;28;20406;-80
2023/05/20 15:25:12;;;;;;;22.73;6.17;;;;;;;25.89;34.17;101152.50;5039252;28;20441;-81
2023/05/20 15:27:40;;;;;;;21.45;5.10;;;;;;;25.24;35.71;101170.69;5036574;28;20878;-81
2023/05/20 15:30:07;;;;;;;20.98;5.00;;;;;;;24.75;37.06;101186.97;5037770;28;20394;-80
2023/05/20 15:32:32;;;;;;;17.15;5.32;;;;;;;24.72;37.53;101169.34;5035138;28;20386;-80
2023/05/20 15:34:58;;;;;;;15.60;4.32;;;;;;;23.92;38.85;101174.22;5034698;28;20402;-80
2023/05/20 15:37:23;;;;;;;11.43;4.25;;;;;;;23.67;40.07;101167.28;5036214;28;20657;-80
2023/05/20 15:39:49;;;;;;;12.63;4.77;;;;;;;23.75;40.21;101176.06;5024493;28;20406;-80
2023/05/20 15:42:17;;;;;;;18.97;5.37;;;;;;;23.83;40.13;101167.56;5033251;28;20386;-80
2023/05/20 15:44:46;;;;;;;17.77;5.50;;;;;;;23.91;40.01;101171.75;5036548;28;20404;-80
2023/05/20 15:47:11;;;;;;;12.98;4.78;;;;;;;23.69;40.26;101167.03;5029396;28;20872;-81
2023/05/20 15:49:37;;;;;;;16.50;5.50;;;;;;;23.67;40.36;101167.28;5030635;28;20425;-81
2023/05/20 15:52:03;;;;;;;11.52;4.78;;;;;;;23.20;41.02;101162.19;5033353;28;20405;-80
2023/05/20 15:54:28;;;;;;;16.63;5.85;;;;;;;23.44;40.58;101167.44;5031782;28;20858;-79
2023/05/20 15:56:54;;;;;;;18.07;5.70;;;;;;;23.41;40.87;101151.72;5037746;28;20385;-81
2023/05/20 15:59:20;;;;;;;17.40;5.72;;;;;;;23.36;40.61;101149.75;5040799;28;20475;-79
2023/05/20 16:01:45;;;;;;;14.17;5.07;;;;;;;23.31;40.77;101159.66;5041743;28;20398;-80
2023/05/20 16:04:11;;;;;;;15.68;5.47;;;;;;;23.06;40.84;101156.25;5032495;28;20418;-79
2023/05/20 16:06:36;;;;;;;18.90;5.70;;;;;;;23.00;41.58;101169.91;5040168;28;21767;-79
2023/05/20 16:09:02;;;;;;;18.47;5.57;;;;;;;23.06;41.58;101144.63;5040031;28;20394;-79
2023/05/20 16:11:30;;;;;;;14.00;5.03;;;;;;;23.04;41.72;101139.44;5033722;28;20406;-80
2023/05/20 16:13:56;;;;;;;17.52;5.13;;;;;;;23.15;41.24;101151.28;5033328;28;20505;-79
2023/05/20 16:16:23;;;;;;;19.08;4.95;;;;;;;23.18;41.25;101150.78;5037813;28;20864;-81
2023/05/20 16:18:48;;;;;;;17.38;4.93;;;;;;;23.07;41.82;101154.38;5039429;28;20394;-79
2023/05/20 16:21:13;;;;;;;17.73;4.77;;;;;;;23.00;41.77;101161.78;5044417;28;20395;-80
2023/05/20 16:23:39;;;;;;;17.43;4.80;;;;;;;23.07;41.52;101160.59;5056453;28;20412;-79
2023/05/20 16:26:04;;;;;;;16.58;4.57;;;;;;;22.96;41.43;101166.03;5039836;28;20391;-80
2023/05/20 16:28:30;;;;;;;13.40;4.50;;;;;;;22.97;41.50;101170.38;5040362;28;20407;-81
2023/05/20 16:30:57;;;;;;;11.67;4.07;;;;;;;22.96;41.61;101163.31;5034534;28;20517;-80
2023/05/20 16:33:22;;;;;;;15.18;4.43;;;;;;;22.83;41.61;101159.88;5043433;28;20399;-79
2023/05/20 16:35:48;;;;;;;20.10;4.73;;;;;;;22.78;41.94;101161.63;5033359;28;20390;-79
2023/05/20 16:38:13;;;;;;;21.70;5.13;;;;;;;22.77;41.92;101160.00;5032406;28;20386;-80
2023/05/20 16:40:39;;;;;;;15.87;4.70;;;;;;;22.76;41.98;101152.94;5042358;28;20500;-80
2023/05/20 16:43:04;;;;;;;16.93;4.60;;;;;;;22.63;42.48;101167.56;5036753;28;20417;-81
2023/05/20 16:45:30;;;;;;;17.93;4.93;;;;;;;22.63;42.51;101160.25;5033805;28;20485;-79
2023/05/20 16:47:56;;;;;;;17.88;4.88;;;;;;;22.73;42.56;101164.25;5041834;28;20394;-80
2023/05/20 16:50:21;;;;;;;23.92;5.18;;;;;;;22.64;42.74;101166.50;5055199;28;20431;-80
2023/05/20 16:52:47;;;;;;;22.67;5.30;;;;;;;22.53;43.06;101162.78;5040866;28;20390;-79
2023/05/20 16:55:12;;;;;;;18.83;5.10;;;;;;;22.51;43.50;101159.50;5034666;28;20738;-79
2023/05/20 16:57:37;;;;;;;13.20;4.60;;;;;;;22.40;43.67;101146.81;5035051;28;20875;-80
2023/05/20 17:00:07;;;;;;;17.02;5.13;;;;;;;22.44;43.66;101148.81;5030639;28;20510;-80
2023/05/20 17:02:32;;;;;;;19.95;5.40;;;;;;;22.50;43.61;101150.53;5032014;28;20740;-79
2023/05/20 17:04:58;;;;;;;21.00;5.07;;;;;;;22.25;44.10;101150.78;5037866;28;20492;-80
2023/05/20 17:07:23;;;;;;;19.40;5.17;;;;;;;22.18;44.35;101158.19;5041040;28;20432;-80
2023/05/20 17:09:49;;;;;;;22.10;5.40;;;;;;;22.21;44.52;101151.53;5033865;28;20432;-80
2023/05/20 17:12:15;;;;;;;18.63;5.33;;;;;;;22.23;44.64;101154.81;5033358;28;20398;-80
2023/05/20 17:14:40;;;;;;;18.02;5.03;;;;;;;22.15;44.74;101161.41;5038041;28;20947;-79
2023/05/20 17:17:08;;;;;;;23.00;5.70;;;;;;;22.14;44.87;101154.34;5031813;28;20402;-79
2023/05/20 17:19:34;;;;;;;15.32;4.97;;;;;;;22.08;45.20;101161.50;5035424;28;20487;-79
2023/05/20 17:22:00;;;;;;;15.75;5.13;;;;;;;22.07;45.19;101161.75;5038664;28;20871;-80
2023/05/20 17:24:25;;;;;;;18.80;5.63;;;;;;;22.04;45.01;101159.50;5038226;28;20414;-80
2023/05/20 17:26:50;;;;;;;19.25;5.32;;;;;;;22.06;45.25;101168.22;5038271;28;20396;-80
2023/05/20 17:29:16;;;;;;;18.93;5.30;;;;;;;22.04;45.08;101170.31;5035306;28;20403;-80
2023/05/20 17:31:43;;;;;;;17.45;5.20;;;;;;;22.03;45.30;101179.47;5030503;28;20472;-80
2023/05/20 17:34:08;;;;;;;18.63;5.60;;;;;;;21.89;45.58;101176.19;5039046;28;20390;-80
2023/05/20 17:36:34;;;;;;;15.87;5.00;;;;;;;21.84;45.83;101189.53;5041681;28;20395;-80
2023/05/20 17:38:59;;;;;;;16.80;5.23;;;;;;;21.70;45.98;101184.38;5038566;28;20413;-81
2023/05/20 17:41:25;;;;;;;14.32;5.15;;;;;;;21.74;46.04;101180.16;5036763;28;20393;-81
2023/05/20 17:43:50;;;;;;;18.07;5.23;;;;;;;21.65;46.42;101191.53;5045869;28;20621;-79
2023/05/20 17:46:16;;;;;;;22.75;5.70;;;;;;;21.57;46.86;101196.22;5030366;28;20453;-80
2023/05/20 17:48:42;;;;;;;21.57;5.83;;;;;;;21.54;47.00;101198.56;5037376;28;20400;-80
2023/05/20 17:51:07;;;;;;;16.80;5.40;;;;;;;21.49;47.10;101201.94;5045950;28;20389;-79
2023/05/20 17:53:33;;;;;;;18.30;5.47;;;;;;;21.48;47.08;101199.47;5036721;28;20475;-81
2023/05/20 17:55:58;;;;;;;16.02;5.93;;;;;;;21.49;46.97;101195.72;5042431;28;20407;-81
2023/05/20 17:58:25;;;;;;;17.30;5.23;;;;;;;21.41;47.06;101204.94;5037445;28;20392;-80
2023/05/20 18:00:51;;;;;;;17.08;5.70;;;;;;;21.26;47.26;101202.63;5037947;28;20398;-79
2023/05/20 18:03:17;;;;;;;16.20;5.70;;;;;;;21.17;47.50;101212.09;5035681;28;20429;-80
2023/05/20 18:05:43;;;;;;;19.35;6.35;;;;;;;21.24;47.34;101230.91;5032794;28;20451;-82
2023/05/20 18:08:09;;;;;;;15.52;5.68;;;;;;;21.18;47.23;101225.38;5039855;28;20402;-80
2023/05/20 18:10:34;;;;;;;15.17;5.40;;;;;;;21.25;47.11;101238.75;5031153;28;20460;-79
2023/05/20 18:13:00;;;;;;;20.67;6.27;;;;;;;21.18;47.27;101236.16;5031098;28;20870;-80
2023/05/20 18:15:26;;;;;;;16.27;5.45;;;;;;;21.16;47.33;101237.44;5030574;28;20390;-80
2023/05/20 18:17:51;;;;;;;21.07;6.23;;;;;;;21.01;47.27;101259.38;5018906;28;20382;-79
2023/05/20 18:20:16;;;;;;;16.23;5.35;;;;;;;20.96;47.03;101265.47;5044004;28;20392;-78
2023/05/20 18:22:45;;;;;;;20.27;5.40;;;;;;;21.02;46.85;101263.72;5046727;28;20430;-78
2023/05/20 18:25:11;;;;;;;21.70;6.07;;;;;;;21.09;46.83;101253.69;5033871;28;20425;-78
2023/05/20 18:27:38;;;;;;;22.23;6.07;;;;;;;21.02;47.33;101241.34;5035403;28;20393;-79
2023/05/20 18:30:04;;;;;;;13.85;4.97;;;;;;;21.02;47.42;101233.28;5048904;28;20491;-80
2023/05/20 18:32:29;;;;;;;21.17;5.65;;;;;;;21.11;47.57;101250.78;5038593;28;20473;-79
2023/05/20 18:34:55;;;;;;;15.50;4.83;;;;;;;21.08;47.80;101249.34;5034119;28;20394;-80
2023/05/20 18:37:20;;;;;;;14.00;4.80;;;;;;;21.11;47.78;101248.88;5033240;28;20446;-79
2023/05/20 18:39:47;;;;;;;16.40;5.20;;;;;;;21.12;47.79;101257.78;5034569;28;20406;-80
2023/05/20 18:42:12;;;;;;;12.90;4.30;;;;;;;21.17;47.55;101258.75;5034428;28;20412;-80
2023/05/20 18:44:38;;;;;;;18.17;4.57;;;;;;;21.24;47.39;101263.25;5031621;28;20398;-79
2023/05/20 18:47:03;;;;;;;18.13;4.50;;;;;;;21.17;47.52;101253.34;5032807;28;20408;-79
2023/05/20 18:49:29;;;;;;;13.63;4.37;;;;;;;21.25;47.29;101244.16;5033836;28;20400;-80
2023/05/20 18:51:54;;;;;;;12.35;4.32;;;;;;;21.39;47.10;101245.63;5038616;28;20411;-79
2023/05/20 18:54:20;;;;;;;9.47;3.83;;;;;;;21.34;47.01;101237.38;5034710;28;20426;-80
2023/05/20 18:56:47;;;;;;;12.37;4.27;;;;;;;21.35;46.84;101230.13;5043395;28;20400;-80
2023/05/20 18:59:13;;;;;;;12.00;4.57;;;;;;;21.47;46.62;101249.88;5036790;28;20471;-80
2023/05/20 19:01:38;;;;;;;14.73;4.77;;;;;;;21.46;46.77;101242.84;5039421;28;20395;-80
2023/05/20 19:04:04;;;;;;;14.52;4.20;;;;;;;21.57;46.62;101246.63;5033835;28;20413;-80
2023/05/20 19:06:30;;;;;;;14.50;4.47;;;;;;;21.66;46.35;101255.22;5033558;28;20402;-80
2023/05/20 19:08:56;;;;;;;14.30;4.50;;;;;;;21.65;46.35;101254.41;5040310;28;20409;-79
2023/05/20 19:11:22;;;;;;;21.75;4.93;;;;;;;21.57;46.55;101266.34;5039083;28;20410;-80
2023/05/20 19:13:47;;;;;;;17.37;4.63;;;;;;;21.53;46.65;101269.72;5058231;28;20895;-80
2023/05/20 19:16:13;;;;;;;15.57;4.80;;;;;;;21.48;46.79;101270.44;5034391;28;20472;-80
2023/05/20 19:18:38;;;;;;;13.90;4.23;;;;;;;21.41;47.03;101253.50;5033270;28;20386;-80
2023/05/20 19:21:04;;;;;;;12.73;4.28;;;;;;;21.48;46.85;101258.78;5033142;28;20421;-80
2023/05/20 19:23:31;;;;;;;14.33;4.40;;;;;;;21.53;46.66;101259.75;5034712;28;20418;-80
2023/05/20 19:25:56;;;;;;;14.07;4.30;;;;;;;21.54;46.77;101268.69;5033972;28;20394;-80
2023/05/20 19:28:22;;;;;;;11.67;3.77;;;;;;;21.38;47.03;101267.41;5032480;28;20424;-79
2023/05/20 19:30:47;;;;;;;11.63;3.95;;;;;;;21.33;47.18;101265.41;5038692;28;20498;-79
2023/05/20 19:33:13;;;;;;;10.57;3.73;;;;;;;21.29;47.33;101261.50;5048486;28;20398;-79
2023/05/20 19:35:39;;;;;;;15.80;4.57;;;;;;;21.31;47.16;101266.69;5037460;28;20930;-81
2023/05/20 19:38:05;;;;;;;16.05;5.07;;;;;;;21.36;47.14;101256.03;5032726;28;20398;-80
2023/05/20 19:40:31;;;;;;;15.85;4.72;;;;;;;21.44;47.01;101273.78;5048455;28;20953;-81
2023/05/20 19:42:57;;;;;;;12.13;4.25;;;;;;;21.32;47.22;101263.75;5046037;28;20417;-80
2023/05/20 19:45:22;;;;;;;10.97;4.23;;;;;;;21.31;47.20;101277.47;5035848;28;20467;-80
2023/05/20 19:47:49;;;;;;;13.00;4.17;;;;;;;21.23;47.53;101273.22;5025412;28;20378;-79
2023/05/20 19:50:14;;;;;;;14.77;4.50;;;;;;;21.22;47.54;101273.44;5032391;28;20711;-79
2023/05/20 19:52:40;;;;;;;12.63;4.57;;;;;;;21.11;47.65;101264.25;5033135;28;20851;-79
2023/05/20 19:55:06;;;;;;;16.50;4.75;;;;;;;21.07;47.92;101263.88;5033423;28;20485;-81
2023/05/20 19:57:31;;;;;;;16.27;4.90;;;;;;;20.99;47.97;101266.88;5033832;28;20680;-80
2023/05/20 19:59:57;;;;;;;14.00;4.70;;;;;;;20.94;48.12;101272.94;5048521;28;20956;-81
2023/05/20 20:02:22;;;;;;;12.93;4.67;;;;;;;21.02;47.93;101285.28;5030784;28;20460;-78
2023/05/20 20:04:48;;;;;;;15.77;4.90;;;;;;;20.97;47.97;101272.47;5033762;28;20459;-79
2023/05/20 20:07:13;;;;;;;18.70;5.63;;;;;;;20.93;48.09;101274.00;5033184;28;20467;-80
2023/05/20 20:09:39;;;;;;;15.80;5.97;;;;;;;20.97;48.09;101271.66;5033176;28;20469;-79
2023/05/20 20:12:06;;;;;;;15.53;5.67;;;;;;;20.97;47.97;101263.59;5032522;28;20418;-79
2023/05/20 20:14:31;;;;;;;16.27;5.68;;;;;;;20.94;48.29;101266.72;5030342;28;20485;-79
2023/05/20 20:16:58;;;;;;;23.13;5.70;;;;;;;20.82;48.71;101269.34;5043771;28;20446;-79
2023/05/20 20:19:24;;;;;;;14.80;4.85;;;;;;;20.71;48.88;101268.22;5035268;28;20386;-79
2023/05/20 20:21:51;;;;;;;15.45;5.40;;;;;;;20.65;49.11;101261.03;5032375;28;20889;-78
2023/05/20 20:24:18;;;;;;;18.63;5.15;;;;;;;20.66;49.11;101262.69;5048012;28;20446;-79
2023/05/20 20:26:46;;;;;;;18.27;5.85;;;;;;;20.72;49.00;101267.16;5032356;28;20406;-79
2023/05/20 20:29:13;;;;;;;15.18;4.90;;;;;;;20.74;48.92;101270.50;5031978;28;20485;-79
2023/05/20 20:31:38;;;;;;;15.87;4.70;;;;;;;20.60;49.34;101274.34;5032458;28;20506;-79
2023/05/20 20:34:04;;;;;;;14.02;4.72;;;;;;;20.49;49.67;101275.03;5032880;28;20393;-79
2023/05/20 20:36:30;;;;;;;13.53;4.40;;;;;;;20.47;49.85;101283.34;5033487;28;20450;-79
2023/05/20 20:38:58;;;;;;;13.43;4.30;;;;;;;20.48;49.80;101289.56;5044518;28;20406;-80
2023/05/20 20:41:24;;;;;;;12.73;4.40;;;;;;;20.40;50.13;101291.50;5052208;28;20391;-80
2023/05/20 20:43:49;;;;;;;12.70;4.00;;;;;;;20.27;51.01;101291.59;5031639;28;20442;-79
2023/05/20 20:46:15;;;;;;;14.43;4.50;;;;;;;20.17;51.73;101292.13;5031277;28;20449;-80
2023/05/20 20:48:44;;;;;;;16.07;4.50;;;;;;;20.19;51.87;101297.28;5049173;28;20754;-81
2023/05/20 20:51:13;;;;;;;15.88;4.13;;;;;;;20.17;52.23;101289.44;5031975;28;20390;-79
2023/05/20 20:53:45;;;;;;;16.05;4.22;;;;;;;20.19;52.49;101297.28;5032419;28;20382;-80
2023/05/20 20:56:11;;;;;;;13.40;4.20;;;;;;;20.21;52.31;101289.81;5031176;28;20417;-80
2023/05/20 20:58:37;;;;;;;12.38;3.97;;;;;;;20.24;52.14;101284.81;5030726;28;20871;-79
2023/05/20 21:01:04;;;;;;;11.82;3.90;;;;;;;20.33;52.00;101282.66;5031975;28;20406;-78
2023/05/20 21:03:32;;;;;;;15.80;4.30;;;;;;;20.38;51.62;101284.69;5032323;28;20893;-78
2023/05/20 21:05:58;;;;;;;16.15;4.38;;;;;;;20.39;51.52;101287.16;5031833;28;20381;-79
2023/05/20 21:08:26;;;;;;;14.03;4.60;;;;;;;20.38;51.60;101287.38;5032345;28;20397;-78
2023/05/20 21:10:53;;;;;;;14.02;4.53;;;;;;;20.31;51.85;101287.44;5033851;28;20378;-79
2023/05/20 21:13:20;;;;;;;13.57;4.23;;;;;;;20.21;52.10;101277.16;5025981;28;20418;-79
2023/05/20 21:15:46;;;;;;;13.63;4.40;;;;;;;20.24;52.20;101281.31;5036364;28;20422;-79
2023/05/20 21:18:12;;;;;;;13.33;4.30;;;;;;;20.27;52.06;101277.34;5031002;28;20402;-79
2023/05/20 21:20:37;;;;;;;18.00;4.60;;;;;;;20.22;51.98;101267.22;5030837;28;20439;-80
2023/05/20 21:23:03;;;;;;;11.77;4.40;;;;;;;20.35;51.69;101269.81;5053840;28;20410;-80
2023/05/20 21:25:28;;;;;;;11.97;4.07;;;;;;;20.42;51.29;101257.09;5035591;28;20389;-80
2023/05/20 21:27:54;;;;;;;15.90;4.28;;;;;;;20.47;51.24;101256.41;5046562;28;20398;-79
2023/05/20 21:30:22;;;;;;;15.07;4.47;;;;;;;20.46;51.05;101248.59;5031950;28;20813;-80